createdAt,value
2019-03-29T00:00:12.830Z,6.60
2019-03-29T00:02:42.956Z,6.97
2019-03-29T00:05:12.684Z,7.63
2019-03-29T00:07:42.921Z,8.73
2019-03-29T00:10:11.888Z,8.90
2019-03-29T00:12:40.947Z,7.73
2019-03-29T00:15:11.034Z,7.77
2019-03-29T00:17:40.028Z,7.20
2019-03-29T00:20:09.107Z,7.20
2019-03-29T00:22:38.087Z,6.43
2019-03-29T00:25:07.401Z,5.90
2019-03-29T00:27:36.332Z,5.97
2019-03-29T00:30:06.388Z,7.27
2019-03-29T00:32:35.240Z,7.33
2019-03-29T00:35:04.902Z,7.80
2019-03-29T00:37:33.721Z,6.50
2019-03-29T00:40:02.551Z,7.00
2019-03-29T00:42:31.423Z,7.57
2019-03-29T00:45:00.410Z,7.73
2019-03-29T00:47:29.981Z,8.10
2019-03-29T00:49:59.043Z,9.03
2019-03-29T00:52:27.902Z,8.80
2019-03-29T00:54:56.670Z,8.40
2019-03-29T00:57:25.451Z,9.87
2019-03-29T00:59:54.294Z,10.03
2019-03-29T01:02:23.165Z,8.73
2019-03-29T01:04:51.950Z,10.93
2019-03-29T01:07:20.773Z,8.93
2019-03-29T01:09:49.639Z,12.47
2019-03-29T01:12:18.465Z,15.90
2019-03-29T01:14:47.314Z,14.70
2019-03-29T01:17:16.081Z,13.00
2019-03-29T01:19:44.917Z,9.60
2019-03-29T01:22:13.751Z,8.43
2019-03-29T01:24:42.524Z,9.00
2019-03-29T01:27:11.374Z,8.50
2019-03-29T01:29:40.265Z,6.90
2019-03-29T01:32:09.140Z,7.20
2019-03-29T01:34:38.013Z,7.33
2019-03-29T01:37:06.837Z,7.47
2019-03-29T01:39:35.689Z,7.00
2019-03-29T01:42:04.478Z,7.37
2019-03-29T01:44:33.410Z,7.93
2019-03-29T01:47:02.290Z,7.07
2019-03-29T01:49:31.135Z,7.20
2019-03-29T01:51:59.973Z,7.23
2019-03-29T01:54:28.827Z,7.37
2019-03-29T01:56:57.674Z,7.13
2019-03-29T01:59:26.548Z,7.33
2019-03-29T02:01:55.365Z,7.70
2019-03-29T02:04:24.295Z,8.20
2019-03-29T02:06:53.172Z,8.97
2019-03-29T02:09:21.939Z,8.60
2019-03-29T02:11:50.803Z,8.27
2019-03-29T02:14:19.603Z,8.00
2019-03-29T02:16:48.447Z,8.93
2019-03-29T02:19:17.293Z,7.73
2019-03-29T02:21:46.076Z,7.40
2019-03-29T02:24:14.911Z,8.83
2019-03-29T02:26:43.755Z,9.13
2019-03-29T02:29:12.584Z,8.97
2019-03-29T02:31:42.426Z,9.43
2019-03-29T02:34:11.639Z,24.13
2019-03-29T02:36:40.495Z,47.53
2019-03-29T02:39:09.377Z,149.60
2019-03-29T02:41:38.218Z,141.53
2019-03-29T02:44:07.606Z,152.37
2019-03-29T02:46:36.796Z,146.37
2019-03-29T02:49:05.574Z,82.10
2019-03-29T02:51:34.417Z,33.77
2019-03-29T02:54:03.265Z,14.47
2019-03-29T02:56:32.088Z,12.10
2019-03-29T02:59:00.918Z,9.53
2019-03-29T03:01:29.753Z,10.57
2019-03-29T03:03:58.600Z,13.67
2019-03-29T03:06:27.437Z,13.97
2019-03-29T03:09:12.144Z,11.53
2019-03-29T03:11:26.755Z,8.87
2019-03-29T03:13:55.585Z,8.17
2019-03-29T03:16:24.442Z,8.70
2019-03-29T03:18:53.277Z,8.93
2019-03-29T03:21:22.099Z,9.60
2019-03-29T03:23:50.863Z,12.40
2019-03-29T03:26:19.708Z,14.27
2019-03-29T03:28:48.557Z,16.53
2019-03-29T03:31:17.415Z,12.70
2019-03-29T03:33:46.174Z,11.73
2019-03-29T03:36:15.031Z,11.00
2019-03-29T03:38:43.864Z,9.93
2019-03-29T03:41:12.689Z,9.57
2019-03-29T03:43:41.455Z,9.67
2019-03-29T03:46:10.296Z,9.23
2019-03-29T03:48:39.129Z,9.23
2019-03-29T03:51:07.970Z,9.53
2019-03-29T03:53:36.726Z,9.70
2019-03-29T03:56:06.975Z,9.73
2019-03-29T03:58:36.308Z,9.67
2019-03-29T04:01:05.154Z,13.03
2019-03-29T04:03:34.010Z,11.50
2019-03-29T04:06:02.802Z,9.50
2019-03-29T04:08:31.689Z,13.93
2019-03-29T04:11:00.514Z,13.43
2019-03-29T04:13:29.281Z,11.87
2019-03-29T04:15:58.069Z,13.37
2019-03-29T04:18:26.894Z,14.70
2019-03-29T04:20:55.739Z,15.00
2019-03-29T04:23:24.690Z,11.80
2019-03-29T04:25:53.910Z,14.00
2019-03-29T04:28:24.458Z,13.80
2019-03-29T04:30:53.336Z,51.80
2019-03-29T04:33:22.109Z,58.67
2019-03-29T04:35:50.878Z,60.93
2019-03-29T04:38:19.829Z,77.90
2019-03-29T04:40:48.770Z,53.43
2019-03-29T04:43:17.627Z,58.20
2019-03-29T04:45:46.469Z,47.53
2019-03-29T04:48:15.313Z,45.67
2019-03-29T04:50:44.175Z,43.40
2019-03-29T04:53:13.056Z,32.03
2019-03-29T04:55:41.895Z,20.13
2019-03-29T04:58:10.773Z,23.47
2019-03-29T05:00:39.563Z,19.90
2019-03-29T05:03:08.393Z,18.50
2019-03-29T05:05:37.240Z,15.73
2019-03-29T05:08:06.032Z,13.57
2019-03-29T05:10:34.849Z,14.77
2019-03-29T05:13:03.705Z,12.60
2019-03-29T05:15:32.576Z,11.30
2019-03-29T05:18:01.659Z,13.90
2019-03-29T05:20:30.508Z,18.47
2019-03-29T05:22:59.342Z,13.03
2019-03-29T05:25:28.280Z,12.27
2019-03-29T05:27:57.487Z,11.03
2019-03-29T05:30:26.368Z,12.50
2019-03-29T05:32:55.208Z,19.93
2019-03-29T05:35:24.056Z,19.83
2019-03-29T05:37:52.894Z,14.33
2019-03-29T05:40:34.280Z,12.07
2019-03-29T05:42:52.236Z,11.87
2019-03-29T05:45:21.121Z,14.80
2019-03-29T05:47:50.015Z,38.13
2019-03-29T05:50:18.851Z,22.33
2019-03-29T05:52:47.887Z,22.23
2019-03-29T05:55:16.739Z,14.80
2019-03-29T05:57:45.573Z,18.27
2019-03-29T06:00:16.192Z,14.07
2019-03-29T06:02:45.056Z,9.83
2019-03-29T06:05:14.012Z,10.37
2019-03-29T06:07:42.774Z,10.33
2019-03-29T06:10:11.655Z,10.27
2019-03-29T06:12:40.498Z,12.13
2019-03-29T06:15:09.554Z,13.23
2019-03-29T06:17:48.622Z,14.50
2019-03-29T06:20:09.192Z,13.57
2019-03-29T06:22:38.024Z,14.07
2019-03-29T06:25:08.216Z,13.88
2019-03-29T06:27:37.685Z,12.18
2019-03-29T06:30:08.174Z,13.35
2019-03-29T06:32:37.624Z,11.90
2019-03-29T06:35:08.366Z,11.95
2019-03-29T06:37:40.416Z,11.53
2019-03-29T06:40:12.703Z,10.40
2019-03-29T06:42:42.133Z,11.33
2019-03-29T06:45:11.859Z,12.00
2019-03-29T06:47:41.297Z,10.10
2019-03-29T06:50:13.954Z,11.15
2019-03-29T06:52:42.166Z,11.57
2019-03-29T06:55:11.666Z,9.90
2019-03-29T06:57:41.116Z,10.55
2019-03-29T07:00:10.845Z,9.18
2019-03-29T07:02:40.288Z,11.00
2019-03-29T07:05:09.732Z,10.38
2019-03-29T07:07:39.131Z,9.68
2019-03-29T07:10:08.634Z,10.98
2019-03-29T07:12:39.608Z,12.00
2019-03-29T07:15:09.059Z,9.63
2019-03-29T07:17:38.427Z,9.95
2019-03-29T07:20:08.138Z,9.78
2019-03-29T07:22:37.624Z,9.63
2019-03-29T07:25:08.350Z,9.70
2019-03-29T07:27:44.950Z,9.70
2019-03-29T07:30:10.193Z,7.85
2019-03-29T07:32:39.603Z,9.50
2019-03-29T07:35:09.090Z,8.75
2019-03-29T07:37:38.534Z,9.83
2019-03-29T07:40:08.521Z,9.60
2019-03-29T07:42:37.937Z,9.10
2019-03-29T07:45:10.151Z,9.45
2019-03-29T07:47:39.559Z,8.60
2019-03-29T07:50:09.013Z,8.65
2019-03-29T07:52:38.465Z,9.33
2019-03-29T07:55:08.378Z,9.93
2019-03-29T07:57:37.784Z,8.70
2019-03-29T08:00:09.164Z,8.58
2019-03-29T08:02:38.826Z,9.45
2019-03-29T08:05:08.364Z,9.28
2019-03-29T08:07:37.808Z,9.38
2019-03-29T08:10:07.359Z,8.73
2019-03-29T08:12:40.319Z,9.33
2019-03-29T08:15:09.848Z,8.65
2019-03-29T08:17:39.565Z,8.73
2019-03-29T08:20:37.381Z,8.25
2019-03-29T08:22:40.265Z,6.60
2019-03-29T08:25:09.630Z,6.83
2019-03-29T08:27:39.167Z,7.08
2019-03-29T08:30:08.993Z,7.20
2019-03-29T08:32:38.340Z,6.85
2019-03-29T08:35:07.925Z,6.92
2019-03-29T08:37:37.389Z,7.15
2019-03-29T08:40:06.969Z,7.15
2019-03-29T08:42:36.437Z,6.92
2019-03-29T08:45:07.492Z,7.17
2019-03-29T08:47:36.948Z,6.85
2019-03-29T08:50:08.024Z,6.87
2019-03-29T08:52:37.469Z,7.25
2019-03-29T08:55:07.972Z,7.28
2019-03-29T08:57:37.495Z,7.42
2019-03-29T09:00:10.473Z,7.28
2019-03-29T09:02:39.941Z,7.47
2019-03-29T09:05:09.369Z,7.50
2019-03-29T09:07:44.996Z,8.38
2019-03-29T09:10:27.221Z,7.47
2019-03-29T09:12:56.757Z,7.72
2019-03-29T09:15:26.142Z,7.12
2019-03-29T09:17:55.610Z,7.22
2019-03-29T09:20:25.019Z,7.83
2019-03-29T09:22:54.518Z,7.78
2019-03-29T09:25:24.059Z,7.80
2019-03-29T09:27:57.359Z,7.45
2019-03-29T09:30:26.984Z,7.72
2019-03-29T09:32:56.426Z,7.97
2019-03-29T09:35:25.842Z,7.35
2019-03-29T09:37:56.641Z,7.50
2019-03-29T09:40:26.373Z,6.60
2019-03-29T09:43:06.873Z,6.90
2019-03-29T09:45:26.941Z,9.28
2019-03-29T09:47:56.382Z,9.43
2019-03-29T09:50:25.925Z,6.58
2019-03-29T09:52:55.348Z,6.90
2019-03-29T09:55:24.774Z,6.47
2019-03-29T09:57:54.281Z,6.67
2019-03-29T10:00:24.039Z,7.80
2019-03-29T10:02:53.693Z,7.25
2019-03-29T10:05:23.097Z,8.35
2019-03-29T10:07:52.632Z,8.15
2019-03-29T10:10:22.170Z,8.00
2019-03-29T10:12:51.563Z,7.78
2019-03-29T10:15:20.960Z,8.00
2019-03-29T10:17:50.391Z,7.15
2019-03-29T10:20:19.877Z,7.55
2019-03-29T10:22:49.390Z,7.12
2019-03-29T10:25:20.199Z,8.10
2019-03-29T10:27:50.081Z,6.67
2019-03-29T10:30:34.331Z,6.83
2019-03-29T10:33:03.700Z,7.05
2019-03-29T10:35:33.198Z,7.40
2019-03-29T10:38:02.655Z,7.40
2019-03-29T10:40:32.087Z,7.37
2019-03-29T10:43:01.554Z,7.10
2019-03-29T10:45:30.951Z,7.25
2019-03-29T10:48:00.417Z,7.10
2019-03-29T10:50:29.986Z,7.80
2019-03-29T10:52:59.508Z,8.40
2019-03-29T10:55:28.973Z,6.90
2019-03-29T10:57:58.419Z,6.15
2019-03-29T11:00:36.040Z,6.70
2019-03-29T11:03:06.081Z,6.65
2019-03-29T11:05:35.528Z,5.87
2019-03-29T11:08:05.280Z,6.80
2019-03-29T11:10:36.893Z,6.53
2019-03-29T11:13:13.389Z,6.22
2019-03-29T11:15:37.690Z,6.22
2019-03-29T11:18:07.578Z,6.08
2019-03-29T11:20:37.065Z,6.62
2019-03-29T11:23:06.685Z,6.80
2019-03-29T11:25:36.174Z,5.90
2019-03-29T11:28:05.645Z,6.62
2019-03-29T11:30:42.164Z,6.33
2019-03-29T11:33:06.538Z,7.12
2019-03-29T11:35:36.071Z,6.22
2019-03-29T11:38:05.615Z,6.30
2019-03-29T11:40:35.096Z,5.85
2019-03-29T11:43:04.554Z,6.37
2019-03-29T11:45:34.229Z,6.92
2019-03-29T11:48:08.924Z,5.50
2019-03-29T11:50:34.798Z,5.67
2019-03-29T11:53:04.306Z,6.35
2019-03-29T11:55:33.674Z,6.92
2019-03-29T11:58:03.114Z,4.97
2019-03-29T12:00:36.993Z,6.10
2019-03-29T12:03:09.189Z,5.70
2019-03-29T12:05:37.642Z,5.95
2019-03-29T12:08:07.249Z,5.95
2019-03-29T12:10:36.667Z,5.65
2019-03-29T12:13:06.566Z,5.80
2019-03-29T12:15:35.991Z,5.90
2019-03-29T12:18:05.414Z,5.72
2019-03-29T12:20:34.777Z,6.08
2019-03-29T12:23:04.282Z,5.97
2019-03-29T12:25:33.690Z,6.80
2019-03-29T12:28:03.124Z,6.37
2019-03-29T12:30:33.175Z,6.80
2019-03-29T12:33:02.591Z,6.78
2019-03-29T12:35:32.021Z,7.62
2019-03-29T12:38:01.666Z,7.35
2019-03-29T12:40:31.102Z,7.22
2019-03-29T12:43:00.628Z,6.00
2019-03-29T12:45:30.062Z,7.12
2019-03-29T12:47:59.496Z,7.53
2019-03-29T12:50:28.946Z,6.72
2019-03-29T12:52:58.379Z,8.78
2019-03-29T12:55:27.888Z,9.28
2019-03-29T12:57:57.351Z,8.83
2019-03-29T13:00:26.966Z,14.05
2019-03-29T13:02:56.443Z,7.83
2019-03-29T13:05:25.884Z,8.33
2019-03-29T13:07:55.361Z,11.20
2019-03-29T13:10:25.288Z,7.70
2019-03-29T13:12:54.720Z,8.10
2019-03-29T13:15:24.151Z,8.50
2019-03-29T13:17:53.660Z,8.78
2019-03-29T13:20:23.041Z,8.33
2019-03-29T13:22:52.491Z,8.55
2019-03-29T13:25:21.990Z,10.15
2019-03-29T13:27:51.329Z,9.65
2019-03-29T13:30:20.832Z,9.18
2019-03-29T13:32:50.413Z,8.40
2019-03-29T13:35:19.875Z,7.53
2019-03-29T13:37:49.359Z,9.68
2019-03-29T13:40:21.153Z,8.70
2019-03-29T13:42:50.046Z,8.43
2019-03-29T13:45:19.524Z,8.28
2019-03-29T13:47:48.915Z,7.83
2019-03-29T13:50:18.424Z,8.55
2019-03-29T13:52:47.850Z,7.67
2019-03-29T13:55:17.246Z,7.80
2019-03-29T13:57:46.713Z,6.47
2019-03-29T14:00:16.586Z,6.15
2019-03-29T14:02:46.013Z,6.22
2019-03-29T14:05:15.504Z,15.65
2019-03-29T14:07:44.952Z,7.47
2019-03-29T14:10:14.344Z,6.72
2019-03-29T14:12:43.705Z,11.97
2019-03-29T14:15:13.836Z,6.37
2019-03-29T14:17:43.348Z,5.80
2019-03-29T14:20:13.464Z,6.78
2019-03-29T14:22:42.900Z,5.47
2019-03-29T14:25:12.454Z,6.70
2019-03-29T14:27:41.897Z,6.53
2019-03-29T14:30:11.735Z,6.95
2019-03-29T14:32:41.089Z,6.67
2019-03-29T14:35:10.629Z,8.80
2019-03-29T14:37:40.061Z,6.62
2019-03-29T14:40:10.427Z,6.40
2019-03-29T14:42:39.902Z,5.35
2019-03-29T14:45:09.769Z,5.78
2019-03-29T14:47:43.388Z,5.45
2019-03-29T14:50:10.789Z,5.45
2019-03-29T14:52:40.263Z,5.60
2019-03-29T14:55:09.948Z,6.72
2019-03-29T14:57:39.390Z,6.40
2019-03-29T15:00:12.912Z,6.97
2019-03-29T15:02:42.402Z,9.43
2019-03-29T15:05:11.950Z,8.40
2019-03-29T15:07:43.010Z,8.50
2019-03-29T15:10:28.370Z,20.72
2019-03-29T15:12:57.907Z,15.08
2019-03-29T15:15:27.350Z,5.75
2019-03-29T15:17:56.774Z,4.97
2019-03-29T15:20:26.193Z,7.75
2019-03-29T15:22:55.650Z,12.63
2019-03-29T15:25:25.090Z,12.50
2019-03-29T15:27:54.560Z,16.02
2019-03-29T15:30:23.923Z,5.90
2019-03-29T15:32:53.368Z,20.37
2019-03-29T15:35:22.828Z,22.95
2019-03-29T15:37:52.274Z,9.15
2019-03-29T15:40:21.803Z,9.68
2019-03-29T15:42:51.239Z,7.87
2019-03-29T15:45:21.263Z,6.95
2019-03-29T15:47:50.725Z,6.03
2019-03-29T15:50:20.183Z,5.60
2019-03-29T15:52:49.636Z,7.87
2019-03-29T15:55:19.192Z,9.05
2019-03-29T15:57:48.668Z,6.85
2019-03-29T16:00:18.236Z,7.10
2019-03-29T16:02:47.665Z,7.53
2019-03-29T16:05:17.099Z,7.25
2019-03-29T16:07:46.594Z,8.30
2019-03-29T16:10:16.072Z,11.38
2019-03-29T16:12:45.405Z,11.65
2019-03-29T16:15:14.858Z,10.03
2019-03-29T16:17:44.282Z,8.90
2019-03-29T16:20:13.722Z,8.48
2019-03-29T16:22:43.191Z,8.73
2019-03-29T16:25:12.622Z,9.80
2019-03-29T16:27:42.070Z,8.80
2019-03-29T16:30:11.949Z,11.60
2019-03-29T16:32:41.457Z,13.40
2019-03-29T16:35:10.880Z,18.52
2019-03-29T16:37:40.337Z,12.35
2019-03-29T16:40:09.945Z,11.78
2019-03-29T16:42:39.377Z,12.88
2019-03-29T16:45:09.344Z,17.15
2019-03-29T16:47:38.849Z,12.55
2019-03-29T16:50:09.075Z,12.47
2019-03-29T16:52:38.544Z,12.43
2019-03-29T16:55:13.802Z,11.05
2019-03-29T16:57:39.804Z,10.40
2019-03-29T17:00:12.545Z,14.18
2019-03-29T17:02:42.366Z,10.50
2019-03-29T17:05:11.851Z,11.35
2019-03-29T17:07:41.237Z,10.05
2019-03-29T17:10:11.212Z,8.55
2019-03-29T17:12:40.718Z,10.60
2019-03-29T17:15:10.247Z,12.63
2019-03-29T17:17:39.774Z,11.25
2019-03-29T17:20:09.685Z,10.50
2019-03-29T17:22:39.103Z,9.58
2019-03-29T17:25:08.907Z,8.78
2019-03-29T17:27:38.267Z,8.88
2019-03-29T17:30:09.498Z,9.90
2019-03-29T17:32:38.951Z,12.03
2019-03-29T17:35:08.425Z,13.68
2019-03-29T17:37:37.876Z,17.92
2019-03-29T17:40:08.975Z,20.10
2019-03-29T17:42:38.440Z,15.63
2019-03-29T17:45:08.382Z,14.73
2019-03-29T17:47:37.821Z,15.13
2019-03-29T17:50:07.929Z,11.93
2019-03-29T17:52:37.379Z,12.35
2019-03-29T17:55:07.658Z,11.45
2019-03-29T17:57:37.131Z,14.15
2019-03-29T18:00:08.209Z,26.75
2019-03-29T18:02:37.723Z,23.90
2019-03-29T18:05:08.041Z,28.15
2019-03-29T18:07:37.480Z,27.13
2019-03-29T18:10:08.422Z,33.90
2019-03-29T18:12:37.871Z,34.60
2019-03-29T18:15:12.153Z,34.80
2019-03-29T18:17:41.659Z,29.12
2019-03-29T18:20:11.665Z,26.15
2019-03-29T18:22:41.113Z,25.32
2019-03-29T18:25:10.552Z,17.12
2019-03-29T18:27:40.151Z,17.07
2019-03-29T18:30:11.385Z,19.70
2019-03-29T18:32:41.102Z,15.75
2019-03-29T18:35:11.194Z,15.30
2019-03-29T18:37:41.056Z,15.65
2019-03-29T18:40:16.174Z,14.03
2019-03-29T18:42:45.705Z,19.50
2019-03-29T18:45:15.175Z,16.87
2019-03-29T18:47:44.686Z,16.52
2019-03-29T18:50:14.144Z,18.15
2019-03-29T18:52:43.594Z,20.30
2019-03-29T18:55:12.979Z,45.10
2019-03-29T18:57:42.483Z,64.50
2019-03-29T19:00:12.082Z,58.35
2019-03-29T19:02:41.529Z,38.53
2019-03-29T19:05:13.857Z,26.12
2019-03-29T19:07:43.334Z,20.52
2019-03-29T19:10:12.776Z,30.88
2019-03-29T19:12:44.099Z,31.02
2019-03-29T19:15:13.589Z,29.63
2019-03-29T19:17:43.178Z,30.77
2019-03-29T19:20:26.276Z,30.17
2019-03-29T19:22:43.943Z,25.72
2019-03-29T19:25:13.385Z,26.27
2019-03-29T19:27:42.822Z,26.42
2019-03-29T19:30:12.136Z,24.93
2019-03-29T19:32:41.611Z,28.60
2019-03-29T19:35:11.157Z,27.27
2019-03-29T19:37:40.673Z,23.90
2019-03-29T19:40:10.351Z,23.40
2019-03-29T19:42:40.029Z,23.27
2019-03-29T19:45:13.134Z,22.37
2019-03-29T19:47:42.622Z,23.83
2019-03-29T19:50:11.980Z,22.20
2019-03-29T19:52:41.492Z,22.10
2019-03-29T19:55:10.372Z,21.70
2019-03-29T19:57:39.265Z,21.27
2019-03-29T20:00:15.076Z,21.00
2019-03-29T20:02:44.652Z,21.68
2019-03-29T20:05:25.852Z,24.87
2019-03-29T20:07:56.122Z,23.77
2019-03-29T20:10:25.058Z,25.45
2019-03-29T20:12:54.693Z,24.87
2019-03-29T20:15:23.607Z,25.47
2019-03-29T20:17:52.773Z,26.57
2019-03-29T20:20:25.637Z,26.70
2019-03-29T20:22:56.506Z,27.00
2019-03-29T20:25:26.123Z,27.37
2019-03-29T20:27:58.090Z,26.50
2019-03-29T20:30:25.999Z,27.90
2019-03-29T20:32:54.816Z,27.97
2019-03-29T20:35:23.762Z,33.33
2019-03-29T20:37:52.532Z,29.73
2019-03-29T20:40:21.675Z,27.37
2019-03-29T20:42:50.550Z,26.87
2019-03-29T20:45:19.482Z,31.63
2019-03-29T20:47:51.647Z,36.57
2019-03-29T20:50:19.083Z,34.83
2019-03-29T20:52:47.926Z,39.10
2019-03-29T20:55:16.779Z,24.93
2019-03-29T20:57:45.848Z,17.30
2019-03-29T21:00:17.281Z,19.93
2019-03-29T21:02:46.308Z,16.23
2019-03-29T21:05:15.258Z,14.07
2019-03-29T21:07:44.132Z,12.03
2019-03-29T21:10:12.993Z,12.30
2019-03-29T21:12:41.904Z,11.20
2019-03-29T21:15:11.346Z,10.13
2019-03-29T21:17:40.338Z,10.07
2019-03-29T21:20:10.341Z,9.90
2019-03-29T21:22:39.190Z,9.90
2019-03-29T21:25:08.519Z,12.20
2019-03-29T21:27:37.770Z,12.03
2019-03-29T21:30:09.571Z,14.20
2019-03-29T21:32:38.440Z,14.03
2019-03-29T21:35:08.205Z,13.90
2019-03-29T21:37:37.761Z,14.50
2019-03-29T21:40:08.594Z,12.10
2019-03-29T21:42:37.731Z,12.07
2019-03-29T21:45:08.399Z,15.60
2019-03-29T21:47:37.262Z,12.30
2019-03-29T21:50:10.435Z,14.43
2019-03-29T21:52:39.375Z,12.80
2019-03-29T21:55:08.579Z,13.20
2019-03-29T21:57:37.416Z,14.30
2019-03-29T22:00:08.894Z,15.07
2019-03-29T22:02:37.742Z,15.03
2019-03-29T22:05:10.335Z,15.40
2019-03-29T22:07:38.361Z,13.40
2019-03-29T22:10:08.684Z,14.43
2019-03-29T22:12:37.685Z,13.47
2019-03-29T22:15:10.148Z,12.93
2019-03-29T22:17:39.223Z,12.50
2019-03-29T22:20:09.606Z,14.47
2019-03-29T22:22:38.670Z,15.70
2019-03-29T22:25:08.512Z,14.47
2019-03-29T22:27:37.477Z,14.43
2019-03-29T22:30:11.198Z,15.63
2019-03-29T22:32:40.037Z,14.97
2019-03-29T22:35:09.195Z,14.23
2019-03-29T22:37:38.144Z,13.90
2019-03-29T22:40:10.530Z,13.60
2019-03-29T22:42:39.383Z,14.30
2019-03-29T22:45:09.204Z,13.67
2019-03-29T22:47:38.066Z,14.60
2019-03-29T22:50:07.502Z,14.30
2019-03-29T22:52:36.441Z,12.67
2019-03-29T22:55:08.505Z,13.37
2019-03-29T22:57:37.361Z,12.20
2019-03-29T23:00:28.598Z,12.33
2019-03-29T23:02:57.433Z,10.87
2019-03-29T23:05:26.357Z,11.70
2019-03-29T23:07:55.199Z,11.33
2019-03-29T23:10:24.146Z,15.00
2019-03-29T23:12:52.984Z,12.33
2019-03-29T23:15:21.861Z,12.60
2019-03-29T23:17:50.737Z,13.63
2019-03-29T23:20:19.699Z,13.60
2019-03-29T23:22:48.549Z,14.03
2019-03-29T23:25:17.391Z,14.17
2019-03-29T23:27:46.290Z,14.73
2019-03-29T23:30:15.871Z,13.60
2019-03-29T23:32:44.712Z,12.03
2019-03-29T23:35:13.676Z,11.90
2019-03-29T23:37:42.452Z,12.13
2019-03-29T23:40:11.380Z,11.40
2019-03-29T23:42:40.142Z,12.03
2019-03-29T23:45:09.013Z,12.23
2019-03-29T23:47:37.850Z,11.43
2019-03-29T23:50:07.824Z,11.07
2019-03-29T23:52:36.632Z,11.10
2019-03-29T23:55:06.272Z,11.07
2019-03-29T23:57:35.113Z,11.33
